sensor_id;sensor_type;location;lat;lon;timestamp;P1;durP1;ratioP1;P2;durP2;ratioP2
43118;SDS011;28729;49.838;8.650;2022-08-11T00:00:40;4.38;;;2.70;;
43118;SDS011;28729;49.838;8.650;2022-08-11T00:04:44;5.05;;;3.13;;
43118;SDS011;28729;49.838;8.650;2022-08-11T00:08:48;4.15;;;2.90;;
43118;SDS011;28729;49.838;8.650;2022-08-11T00:12:52;6.43;;;3.15;;
43118;SDS011;28729;49.838;8.650;2022-08-11T00:16:59;4.60;;;3.22;;
43118;SDS011;28729;49.838;8.650;2022-08-11T00:21:05;5.78;;;3.05;;
43118;SDS011;28729;49.838;8.650;2022-08-11T00:25:12;4.10;;;2.90;;
43118;SDS011;28729;49.838;8.650;2022-08-11T00:29:16;5.70;;;3.58;;
43118;SDS011;28729;49.838;8.650;2022-08-11T00:33:19;4.88;;;3.13;;
43118;SDS011;28729;49.838;8.650;2022-08-11T00:37:44;7.30;;;3.40;;
43118;SDS011;28729;49.838;8.650;2022-08-11T00:46:16;6.45;;;3.08;;
43118;SDS011;28729;49.838;8.650;2022-08-11T01:07:47;5.50;;;3.38;;
43118;SDS011;28729;49.838;8.650;2022-08-11T01:30:11;6.15;;;3.30;;
43118;SDS011;28729;49.838;8.650;2022-08-11T01:43:17;7.80;;;3.20;;
43118;SDS011;28729;49.838;8.650;2022-08-11T01:47:58;6.00;;;2.70;;
43118;SDS011;28729;49.838;8.650;2022-08-11T01:52:10;4.25;;;2.95;;
43118;SDS011;28729;49.838;8.650;2022-08-11T02:00:43;6.18;;;3.40;;
43118;SDS011;28729;49.838;8.650;2022-08-11T02:09:14;5.32;;;2.95;;
43118;SDS011;28729;49.838;8.650;2022-08-11T02:27:19;6.38;;;3.05;;
43118;SDS011;28729;49.838;8.650;2022-08-11T02:36:21;7.32;;;3.67;;
43118;SDS011;28729;49.838;8.650;2022-08-11T02:40:42;4.20;;;3.15;;
43118;SDS011;28729;49.838;8.650;2022-08-11T02:49:17;9.55;;;3.10;;
43118;SDS011;28729;49.838;8.650;2022-08-11T02:58:18;3.38;;;2.72;;
43118;SDS011;28729;49.838;8.650;2022-08-11T03:02:34;10.43;;;3.58;;
43118;SDS011;28729;49.838;8.650;2022-08-11T03:06:51;5.70;;;3.58;;
43118;SDS011;28729;49.838;8.650;2022-08-11T03:11:49;4.78;;;3.22;;
43118;SDS011;28729;49.838;8.650;2022-08-11T03:21:02;5.82;;;2.97;;
43118;SDS011;28729;49.838;8.650;2022-08-11T03:25:24;3.88;;;3.20;;
43118;SDS011;28729;49.838;8.650;2022-08-11T03:29:36;6.72;;;2.85;;
43118;SDS011;28729;49.838;8.650;2022-08-11T03:33:48;6.70;;;3.30;;
43118;SDS011;28729;49.838;8.650;2022-08-11T03:38:10;7.68;;;2.85;;
43118;SDS011;28729;49.838;8.650;2022-08-11T03:42:27;8.40;;;2.70;;
43118;SDS011;28729;49.838;8.650;2022-08-11T03:55:30;4.78;;;3.33;;
43118;SDS011;28729;49.838;8.650;2022-08-11T03:59:58;5.82;;;3.40;;
43118;SDS011;28729;49.838;8.650;2022-08-11T04:25:58;7.82;;;3.35;;
43118;SDS011;28729;49.838;8.650;2022-08-11T04:34:58;6.18;;;3.08;;
43118;SDS011;28729;49.838;8.650;2022-08-11T04:48:37;4.13;;;2.90;;
43118;SDS011;28729;49.838;8.650;2022-08-11T05:12:01;6.35;;;4.03;;
43118;SDS011;28729;49.838;8.650;2022-08-11T05:16:31;6.40;;;3.58;;
43118;SDS011;28729;49.838;8.650;2022-08-11T05:21:05;9.07;;;3.75;;
43118;SDS011;28729;49.838;8.650;2022-08-11T05:25:29;5.57;;;3.40;;
43118;SDS011;28729;49.838;8.650;2022-08-11T05:30:24;6.53;;;4.72;;
43118;SDS011;28729;49.838;8.650;2022-08-11T05:34:51;7.43;;;4.10;;
43118;SDS011;28729;49.838;8.650;2022-08-11T05:39:02;6.50;;;4.43;;
43118;SDS011;28729;49.838;8.650;2022-08-11T05:43:38;9.30;;;4.68;;
43118;SDS011;28729;49.838;8.650;2022-08-11T05:48:20;5.13;;;3.65;;
43118;SDS011;28729;49.838;8.650;2022-08-11T05:52:44;9.65;;;4.95;;
43118;SDS011;28729;49.838;8.650;2022-08-11T05:57:09;7.28;;;4.10;;
43118;SDS011;28729;49.838;8.650;2022-08-11T06:01:52;8.93;;;4.60;;
43118;SDS011;28729;49.838;8.650;2022-08-11T06:06:00;10.70;;;4.18;;
43118;SDS011;28729;49.838;8.650;2022-08-11T06:10:09;7.07;;;4.07;;
43118;SDS011;28729;49.838;8.650;2022-08-11T06:14:12;6.85;;;4.15;;
43118;SDS011;28729;49.838;8.650;2022-08-11T06:18:16;6.20;;;4.28;;
43118;SDS011;28729;49.838;8.650;2022-08-11T06:22:19;6.60;;;4.20;;
43118;SDS011;28729;49.838;8.650;2022-08-11T06:26:21;6.20;;;3.50;;
43118;SDS011;28729;49.838;8.650;2022-08-11T06:30:36;7.63;;;4.20;;
43118;SDS011;28729;49.838;8.650;2022-08-11T06:34:48;8.90;;;3.58;;
43118;SDS011;28729;49.838;8.650;2022-08-11T06:39:20;7.78;;;4.00;;
43118;SDS011;28729;49.838;8.650;2022-08-11T06:47:56;5.35;;;3.45;;
43118;SDS011;28729;49.838;8.650;2022-08-11T06:52:02;6.15;;;3.60;;
43118;SDS011;28729;49.838;8.650;2022-08-11T06:56:29;6.45;;;3.78;;
43118;SDS011;28729;49.838;8.650;2022-08-11T07:01:12;10.05;;;3.47;;
43118;SDS011;28729;49.838;8.650;2022-08-11T07:05:28;5.93;;;3.78;;
43118;SDS011;28729;49.838;8.650;2022-08-11T07:09:38;9.27;;;3.60;;
43118;SDS011;28729;49.838;8.650;2022-08-11T07:14:18;4.80;;;2.75;;
43118;SDS011;28729;49.838;8.650;2022-08-11T07:18:42;7.60;;;3.15;;
43118;SDS011;28729;49.838;8.650;2022-08-11T07:23:06;5.47;;;3.10;;
43118;SDS011;28729;49.838;8.650;2022-08-11T07:27:30;9.43;;;3.47;;
43118;SDS011;28729;49.838;8.650;2022-08-11T07:31:56;8.43;;;3.22;;
43118;SDS011;28729;49.838;8.650;2022-08-11T07:36:03;9.50;;;3.45;;
43118;SDS011;28729;49.838;8.650;2022-08-11T07:40:05;6.70;;;3.40;;
43118;SDS011;28729;49.838;8.650;2022-08-11T07:44:08;5.88;;;3.55;;
43118;SDS011;28729;49.838;8.650;2022-08-11T07:48:12;6.28;;;3.33;;
43118;SDS011;28729;49.838;8.650;2022-08-11T07:56:38;4.90;;;3.30;;
43118;SDS011;28729;49.838;8.650;2022-08-11T08:01:00;9.85;;;3.97;;
43118;SDS011;28729;49.838;8.650;2022-08-11T08:05:22;9.55;;;4.03;;
43118;SDS011;28729;49.838;8.650;2022-08-11T08:09:43;13.73;;;3.83;;
43118;SDS011;28729;49.838;8.650;2022-08-11T08:14:05;6.28;;;3.10;;
43118;SDS011;28729;49.838;8.650;2022-08-11T08:18:33;4.88;;;3.33;;
43118;SDS011;28729;49.838;8.650;2022-08-11T08:22:36;6.88;;;3.25;;
43118;SDS011;28729;49.838;8.650;2022-08-11T08:26:42;6.53;;;3.63;;
43118;SDS011;28729;49.838;8.650;2022-08-11T08:31:00;4.70;;;3.22;;
43118;SDS011;28729;49.838;8.650;2022-08-11T08:35:02;10.65;;;4.32;;
43118;SDS011;28729;49.838;8.650;2022-08-11T08:39:05;5.80;;;3.40;;
43118;SDS011;28729;49.838;8.650;2022-08-11T08:43:08;7.70;;;4.93;;
43118;SDS011;28729;49.838;8.650;2022-08-11T08:47:15;7.68;;;3.58;;
43118;SDS011;28729;49.838;8.650;2022-08-11T08:51:39;4.45;;;3.22;;
43118;SDS011;28729;49.838;8.650;2022-08-11T08:56:07;6.38;;;3.53;;
43118;SDS011;28729;49.838;8.650;2022-08-11T09:00:10;6.65;;;3.38;;
43118;SDS011;28729;49.838;8.650;2022-08-11T09:04:43;6.70;;;3.30;;
43118;SDS011;28729;49.838;8.650;2022-08-11T09:08:46;6.18;;;3.33;;
43118;SDS011;28729;49.838;8.650;2022-08-11T09:12:52;4.60;;;3.58;;
43118;SDS011;28729;49.838;8.650;2022-08-11T09:16:54;4.00;;;2.97;;
43118;SDS011;28729;49.838;8.650;2022-08-11T09:20:56;4.60;;;3.13;;
43118;SDS011;28729;49.838;8.650;2022-08-11T09:24:59;4.72;;;3.13;;
43118;SDS011;28729;49.838;8.650;2022-08-11T09:29:20;4.95;;;3.17;;
43118;SDS011;28729;49.838;8.650;2022-08-11T09:33:23;5.25;;;3.05;;
43118;SDS011;28729;49.838;8.650;2022-08-11T09:41:57;3.90;;;2.80;;
43118;SDS011;28729;49.838;8.650;2022-08-11T09:46:04;3.80;;;2.50;;
43118;SDS011;28729;49.838;8.650;2022-08-11T09:50:10;4.55;;;2.47;;
43118;SDS011;28729;49.838;8.650;2022-08-11T09:54:15;3.25;;;2.50;;
43118;SDS011;28729;49.838;8.650;2022-08-11T09:58:18;5.32;;;2.40;;
43118;SDS011;28729;49.838;8.650;2022-08-11T10:02:44;6.43;;;2.80;;
43118;SDS011;28729;49.838;8.650;2022-08-11T10:06:51;6.82;;;3.20;;
43118;SDS011;28729;49.838;8.650;2022-08-11T10:11:05;5.10;;;2.55;;
43118;SDS011;28729;49.838;8.650;2022-08-11T10:15:10;5.57;;;2.97;;
43118;SDS011;28729;49.838;8.650;2022-08-11T10:19:34;3.65;;;2.97;;
43118;SDS011;28729;49.838;8.650;2022-08-11T10:23:38;5.70;;;2.75;;
43118;SDS011;28729;49.838;8.650;2022-08-11T10:28:07;2.85;;;2.55;;
43118;SDS011;28729;49.838;8.650;2022-08-11T10:32:29;4.95;;;3.00;;
43118;SDS011;28729;49.838;8.650;2022-08-11T10:41:22;7.05;;;2.90;;
43118;SDS011;28729;49.838;8.650;2022-08-11T10:46:10;4.32;;;3.00;;
43118;SDS011;28729;49.838;8.650;2022-08-11T10:50:35;7.35;;;3.00;;
43118;SDS011;28729;49.838;8.650;2022-08-11T10:54:56;8.00;;;3.53;;
43118;SDS011;28729;49.838;8.650;2022-08-11T10:59:17;5.07;;;3.28;;
43118;SDS011;28729;49.838;8.650;2022-08-11T11:07:37;6.53;;;3.38;;
43118;SDS011;28729;49.838;8.650;2022-08-11T11:11:50;5.00;;;3.10;;
43118;SDS011;28729;49.838;8.650;2022-08-11T11:16:14;5.43;;;3.78;;
43118;SDS011;28729;49.838;8.650;2022-08-11T11:20:42;7.38;;;3.83;;
43118;SDS011;28729;49.838;8.650;2022-08-11T11:24:57;4.70;;;3.95;;
43118;SDS011;28729;49.838;8.650;2022-08-11T11:29:19;6.70;;;3.70;;
43118;SDS011;28729;49.838;8.650;2022-08-11T11:38:20;9.68;;;3.47;;
43118;SDS011;28729;49.838;8.650;2022-08-11T11:42:25;7.20;;;3.55;;
43118;SDS011;28729;49.838;8.650;2022-08-11T11:46:28;6.00;;;3.45;;
43118;SDS011;28729;49.838;8.650;2022-08-11T11:50:35;8.75;;;4.05;;
43118;SDS011;28729;49.838;8.650;2022-08-11T11:54:37;6.40;;;3.80;;
43118;SDS011;28729;49.838;8.650;2022-08-11T11:58:40;8.88;;;3.70;;
43118;SDS011;28729;49.838;8.650;2022-08-11T12:03:03;5.97;;;3.97;;
43118;SDS011;28729;49.838;8.650;2022-08-11T12:07:11;7.07;;;4.05;;
43118;SDS011;28729;49.838;8.650;2022-08-11T12:11:32;8.68;;;4.60;;
43118;SDS011;28729;49.838;8.650;2022-08-11T12:15:53;8.25;;;4.18;;
43118;SDS011;28729;49.838;8.650;2022-08-11T12:20:16;7.05;;;4.00;;
43118;SDS011;28729;49.838;8.650;2022-08-11T12:24:34;7.25;;;3.65;;
43118;SDS011;28729;49.838;8.650;2022-08-11T12:28:56;7.82;;;4.00;;
43118;SDS011;28729;49.838;8.650;2022-08-11T12:33:01;5.07;;;4.07;;
43118;SDS011;28729;49.838;8.650;2022-08-11T12:37:04;5.05;;;3.80;;
43118;SDS011;28729;49.838;8.650;2022-08-11T12:41:13;4.93;;;4.03;;
43118;SDS011;28729;49.838;8.650;2022-08-11T12:45:35;4.03;;;3.33;;
43118;SDS011;28729;49.838;8.650;2022-08-11T12:49:43;7.45;;;3.60;;
43118;SDS011;28729;49.838;8.650;2022-08-11T12:58:33;5.40;;;3.80;;
43118;SDS011;28729;49.838;8.650;2022-08-11T13:02:35;4.80;;;3.55;;
43118;SDS011;28729;49.838;8.650;2022-08-11T13:06:56;5.35;;;3.67;;
43118;SDS011;28729;49.838;8.650;2022-08-11T13:10:58;8.65;;;3.78;;
43118;SDS011;28729;49.838;8.650;2022-08-11T13:15:20;3.45;;;3.10;;
43118;SDS011;28729;49.838;8.650;2022-08-11T13:19:23;5.45;;;3.30;;
43118;SDS011;28729;49.838;8.650;2022-08-11T13:23:25;6.95;;;3.53;;
43118;SDS011;28729;49.838;8.650;2022-08-11T13:27:29;6.13;;;3.30;;
43118;SDS011;28729;49.838;8.650;2022-08-11T13:31:32;4.07;;;3.30;;
43118;SDS011;28729;49.838;8.650;2022-08-11T13:35:34;7.05;;;3.47;;
43118;SDS011;28729;49.838;8.650;2022-08-11T13:39:36;4.97;;;3.35;;
43118;SDS011;28729;49.838;8.650;2022-08-11T13:43:50;4.47;;;3.50;;
43118;SDS011;28729;49.838;8.650;2022-08-11T13:47:56;3.75;;;3.35;;
43118;SDS011;28729;49.838;8.650;2022-08-11T13:52:00;5.47;;;3.20;;
43118;SDS011;28729;49.838;8.650;2022-08-11T13:56:04;4.10;;;3.03;;
43118;SDS011;28729;49.838;8.650;2022-08-11T14:00:14;7.30;;;3.13;;
43118;SDS011;28729;49.838;8.650;2022-08-11T14:08:43;5.38;;;3.40;;
43118;SDS011;28729;49.838;8.650;2022-08-11T14:12:55;4.47;;;3.28;;
43118;SDS011;28729;49.838;8.650;2022-08-11T14:17:18;4.85;;;3.22;;
43118;SDS011;28729;49.838;8.650;2022-08-11T14:21:44;4.93;;;3.00;;
43118;SDS011;28729;49.838;8.650;2022-08-11T14:26:11;9.32;;;3.10;;
43118;SDS011;28729;49.838;8.650;2022-08-11T14:30:26;5.78;;;3.10;;
43118;SDS011;28729;49.838;8.650;2022-08-11T14:35:02;5.18;;;2.97;;
43118;SDS011;28729;49.838;8.650;2022-08-11T14:39:10;10.23;;;3.33;;
43118;SDS011;28729;49.838;8.650;2022-08-11T14:43:14;6.97;;;3.60;;
43118;SDS011;28729;49.838;8.650;2022-08-11T14:47:56;7.13;;;3.63;;
43118;SDS011;28729;49.838;8.650;2022-08-11T14:52:08;4.45;;;3.42;;
43118;SDS011;28729;49.838;8.650;2022-08-11T14:56:16;3.88;;;3.40;;
43118;SDS011;28729;49.838;8.650;2022-08-11T15:00:37;7.15;;;3.13;;
43118;SDS011;28729;49.838;8.650;2022-08-11T15:04:41;6.18;;;3.42;;
43118;SDS011;28729;49.838;8.650;2022-08-11T15:12:57;3.78;;;2.47;;
43118;SDS011;28729;49.838;8.650;2022-08-11T15:16:59;4.85;;;2.80;;
43118;SDS011;28729;49.838;8.650;2022-08-11T15:21:13;7.38;;;2.67;;
43118;SDS011;28729;49.838;8.650;2022-08-11T15:25:35;5.72;;;2.80;;
43118;SDS011;28729;49.838;8.650;2022-08-11T15:29:39;6.57;;;2.83;;
43118;SDS011;28729;49.838;8.650;2022-08-11T15:34:13;5.40;;;2.90;;
43118;SDS011;28729;49.838;8.650;2022-08-11T15:38:41;5.25;;;2.90;;
43118;SDS011;28729;49.838;8.650;2022-08-11T15:43:15;5.20;;;2.67;;
43118;SDS011;28729;49.838;8.650;2022-08-11T15:47:58;2.95;;;2.40;;
43118;SDS011;28729;49.838;8.650;2022-08-11T15:52:24;3.95;;;2.75;;
43118;SDS011;28729;49.838;8.650;2022-08-11T15:56:45;5.18;;;2.53;;
43118;SDS011;28729;49.838;8.650;2022-08-11T16:00:49;6.20;;;3.00;;
43118;SDS011;28729;49.838;8.650;2022-08-11T16:05:12;4.47;;;2.60;;
43118;SDS011;28729;49.838;8.650;2022-08-11T16:09:41;5.20;;;2.70;;
43118;SDS011;28729;49.838;8.650;2022-08-11T16:13:57;7.00;;;2.90;;
43118;SDS011;28729;49.838;8.650;2022-08-11T16:18:29;11.25;;;3.28;;
43118;SDS011;28729;49.838;8.650;2022-08-11T16:22:45;6.10;;;3.13;;
43118;SDS011;28729;49.838;8.650;2022-08-11T16:27:03;4.47;;;2.65;;
43118;SDS011;28729;49.838;8.650;2022-08-11T16:36:19;5.30;;;2.50;;
43118;SDS011;28729;49.838;8.650;2022-08-11T16:54:52;10.52;;;4.97;;
43118;SDS011;28729;49.838;8.650;2022-08-11T16:58:55;7.72;;;2.65;;
43118;SDS011;28729;49.838;8.650;2022-08-11T17:03:25;5.97;;;3.00;;
43118;SDS011;28729;49.838;8.650;2022-08-11T17:07:49;7.30;;;3.47;;
43118;SDS011;28729;49.838;8.650;2022-08-11T17:12:09;3.22;;;2.28;;
43118;SDS011;28729;49.838;8.650;2022-08-11T17:16:33;8.02;;;2.58;;
43118;SDS011;28729;49.838;8.650;2022-08-11T17:20:46;4.82;;;2.60;;
43118;SDS011;28729;49.838;8.650;2022-08-11T17:24:48;6.60;;;2.30;;
43118;SDS011;28729;49.838;8.650;2022-08-11T17:28:53;8.18;;;2.67;;
43118;SDS011;28729;49.838;8.650;2022-08-11T17:32:58;6.55;;;2.67;;
43118;SDS011;28729;49.838;8.650;2022-08-11T17:37:19;2.72;;;2.40;;
43118;SDS011;28729;49.838;8.650;2022-08-11T17:41:23;4.57;;;2.95;;
43118;SDS011;28729;49.838;8.650;2022-08-11T17:45:44;4.90;;;2.80;;
43118;SDS011;28729;49.838;8.650;2022-08-11T17:50:08;3.13;;;2.40;;
43118;SDS011;28729;49.838;8.650;2022-08-11T17:54:18;5.32;;;2.97;;
43118;SDS011;28729;49.838;8.650;2022-08-11T17:58:42;3.83;;;2.50;;
43118;SDS011;28729;49.838;8.650;2022-08-11T18:03:03;5.53;;;2.55;;
43118;SDS011;28729;49.838;8.650;2022-08-11T18:07:24;6.30;;;2.67;;
43118;SDS011;28729;49.838;8.650;2022-08-11T18:11:53;4.82;;;2.70;;
43118;SDS011;28729;49.838;8.650;2022-08-11T18:16:16;7.20;;;2.90;;
43118;SDS011;28729;49.838;8.650;2022-08-11T18:20:37;8.60;;;2.63;;
43118;SDS011;28729;49.838;8.650;2022-08-11T18:25:05;7.40;;;2.67;;
43118;SDS011;28729;49.838;8.650;2022-08-11T18:29:29;3.55;;;2.38;;
43118;SDS011;28729;49.838;8.650;2022-08-11T18:33:54;7.05;;;2.78;;
43118;SDS011;28729;49.838;8.650;2022-08-11T18:38:22;4.65;;;2.38;;
43118;SDS011;28729;49.838;8.650;2022-08-11T18:42:47;5.70;;;2.90;;
43118;SDS011;28729;49.838;8.650;2022-08-11T18:47:10;5.97;;;2.25;;
43118;SDS011;28729;49.838;8.650;2022-08-11T18:51:33;6.60;;;2.53;;
43118;SDS011;28729;49.838;8.650;2022-08-11T18:55:56;6.80;;;2.80;;
43118;SDS011;28729;49.838;8.650;2022-08-11T19:00:34;5.72;;;2.20;;
43118;SDS011;28729;49.838;8.650;2022-08-11T19:04:57;5.15;;;2.42;;
43118;SDS011;28729;49.838;8.650;2022-08-11T19:09:39;3.63;;;2.27;;
43118;SDS011;28729;49.838;8.650;2022-08-11T19:18:22;5.25;;;2.40;;
43118;SDS011;28729;49.838;8.650;2022-08-11T19:22:44;7.40;;;2.22;;
43118;SDS011;28729;49.838;8.650;2022-08-11T19:27:07;4.80;;;2.55;;
43118;SDS011;28729;49.838;8.650;2022-08-11T19:31:29;4.40;;;2.55;;
43118;SDS011;28729;49.838;8.650;2022-08-11T19:35:50;6.97;;;2.17;;
43118;SDS011;28729;49.838;8.650;2022-08-11T19:40:16;5.65;;;2.40;;
43118;SDS011;28729;49.838;8.650;2022-08-11T19:44:44;4.00;;;2.40;;
43118;SDS011;28729;49.838;8.650;2022-08-11T19:49:05;2.63;;;2.25;;
43118;SDS011;28729;49.838;8.650;2022-08-11T19:53:27;3.15;;;2.17;;
43118;SDS011;28729;49.838;8.650;2022-08-11T19:57:48;5.93;;;2.20;;
43118;SDS011;28729;49.838;8.650;2022-08-11T20:02:12;3.55;;;1.92;;
43118;SDS011;28729;49.838;8.650;2022-08-11T20:06:34;4.15;;;2.00;;
43118;SDS011;28729;49.838;8.650;2022-08-11T20:15:17;3.10;;;2.20;;
43118;SDS011;28729;49.838;8.650;2022-08-11T20:19:39;5.40;;;2.10;;
43118;SDS011;28729;49.838;8.650;2022-08-11T20:24:20;5.32;;;2.08;;
43118;SDS011;28729;49.838;8.650;2022-08-11T20:28:42;3.67;;;2.13;;
43118;SDS011;28729;49.838;8.650;2022-08-11T20:33:02;3.55;;;2.08;;
43118;SDS011;28729;49.838;8.650;2022-08-11T20:37:24;5.57;;;2.65;;
43118;SDS011;28729;49.838;8.650;2022-08-11T20:41:51;3.60;;;2.42;;
43118;SDS011;28729;49.838;8.650;2022-08-11T20:46:13;6.10;;;2.40;;
43118;SDS011;28729;49.838;8.650;2022-08-11T20:50:35;5.28;;;2.65;;
43118;SDS011;28729;49.838;8.650;2022-08-11T20:54:55;4.97;;;2.33;;
43118;SDS011;28729;49.838;8.650;2022-08-11T20:59:38;4.25;;;2.60;;
43118;SDS011;28729;49.838;8.650;2022-08-11T21:03:58;5.43;;;2.80;;
43118;SDS011;28729;49.838;8.650;2022-08-11T21:08:21;5.80;;;3.15;;
43118;SDS011;28729;49.838;8.650;2022-08-11T21:12:46;8.20;;;2.70;;
43118;SDS011;28729;49.838;8.650;2022-08-11T21:17:28;9.07;;;3.03;;
43118;SDS011;28729;49.838;8.650;2022-08-11T21:22:07;5.68;;;2.80;;
43118;SDS011;28729;49.838;8.650;2022-08-11T21:26:31;4.72;;;2.90;;
43118;SDS011;28729;49.838;8.650;2022-08-11T21:30:54;9.55;;;3.22;;
43118;SDS011;28729;49.838;8.650;2022-08-11T21:35:15;5.43;;;2.78;;
43118;SDS011;28729;49.838;8.650;2022-08-11T21:39:54;6.50;;;3.70;;
43118;SDS011;28729;49.838;8.650;2022-08-11T21:49:16;5.68;;;3.60;;
43118;SDS011;28729;49.838;8.650;2022-08-11T22:04:43;11.05;;;3.22;;
43118;SDS011;28729;49.838;8.650;2022-08-11T22:09:57;5.85;;;2.92;;
43118;SDS011;28729;49.838;8.650;2022-08-11T22:14:48;7.22;;;3.35;;
43118;SDS011;28729;49.838;8.650;2022-08-11T22:19:27;7.82;;;2.90;;
43118;SDS011;28729;49.838;8.650;2022-08-11T22:23:52;4.57;;;3.15;;
43118;SDS011;28729;49.838;8.650;2022-08-11T22:28:32;6.13;;;3.08;;
43118;SDS011;28729;49.838;8.650;2022-08-11T22:32:52;6.20;;;3.33;;
43118;SDS011;28729;49.838;8.650;2022-08-11T22:41:39;4.53;;;2.80;;
43118;SDS011;28729;49.838;8.650;2022-08-11T22:46:04;6.43;;;3.08;;
43118;SDS011;28729;49.838;8.650;2022-08-11T22:50:24;5.43;;;3.05;;
43118;SDS011;28729;49.838;8.650;2022-08-11T22:54:44;4.15;;;2.83;;
43118;SDS011;28729;49.838;8.650;2022-08-11T22:59:10;5.18;;;3.00;;
43118;SDS011;28729;49.838;8.650;2022-08-11T23:08:01;6.20;;;2.83;;
43118;SDS011;28729;49.838;8.650;2022-08-11T23:12:22;8.05;;;2.90;;
43118;SDS011;28729;49.838;8.650;2022-08-11T23:16:47;4.65;;;3.03;;
43118;SDS011;28729;49.838;8.650;2022-08-11T23:21:07;5.03;;;2.70;;
43118;SDS011;28729;49.838;8.650;2022-08-11T23:25:29;5.50;;;3.25;;
43118;SDS011;28729;49.838;8.650;2022-08-11T23:30:00;4.10;;;2.75;;
43118;SDS011;28729;49.838;8.650;2022-08-11T23:34:21;3.38;;;2.55;;
43118;SDS011;28729;49.838;8.650;2022-08-11T23:39:05;7.80;;;3.25;;
43118;SDS011;28729;49.838;8.650;2022-08-11T23:43:25;4.32;;;2.72;;
43118;SDS011;28729;49.838;8.650;2022-08-11T23:47:45;4.22;;;2.67;;
43118;SDS011;28729;49.838;8.650;2022-08-11T23:52:06;4.75;;;2.50;;
43118;SDS011;28729;49.838;8.650;2022-08-11T23:56:27;4.93;;;3.03;;
